sensor_id;sensor_type;location;lat;lon;timestamp;temperature;humidity
49052;DHT22;34866;48.670;18.260;2024-03-02T00:02:41;256.00;6502.40
49052;DHT22;34866;48.670;18.260;2024-03-02T00:05:07;256.00;6502.40
49052;DHT22;34866;48.670;18.260;2024-03-02T00:07:33;256.00;6502.40
49052;DHT22;34866;48.670;18.260;2024-03-02T00:09:59;256.20;6502.40
49052;DHT22;34866;48.670;18.260;2024-03-02T00:12:25;231.30;6502.40
49052;DHT22;34866;48.670;18.260;2024-03-02T00:14:51;231.20;6502.40
49052;DHT22;34866;48.670;18.260;2024-03-02T00:17:25;231.10;6502.40
49052;DHT22;34866;48.670;18.260;2024-03-02T00:19:53;230.90;6502.40
49052;DHT22;34866;48.670;18.260;2024-03-02T00:22:19;230.90;6502.40
49052;DHT22;34866;48.670;18.260;2024-03-02T00:24:45;230.90;6502.40
49052;DHT22;34866;48.670;18.260;2024-03-02T00:27:13;230.90;6502.40
49052;DHT22;34866;48.670;18.260;2024-03-02T00:29:40;230.90;6502.40
49052;DHT22;34866;48.670;18.260;2024-03-02T00:32:12;230.90;6502.40
49052;DHT22;34866;48.670;18.260;2024-03-02T00:34:39;230.90;6502.40
49052;DHT22;34866;48.670;18.260;2024-03-02T00:37:06;230.90;6502.40
49052;DHT22;34866;48.670;18.260;2024-03-02T00:39:34;230.90;6502.40
49052;DHT22;34866;48.670;18.260;2024-03-02T00:42:00;230.70;6502.40
49052;DHT22;34866;48.670;18.260;2024-03-02T00:44:29;230.70;6502.40
49052;DHT22;34866;48.670;18.260;2024-03-02T00:47:01;230.70;6502.40
49052;DHT22;34866;48.670;18.260;2024-03-02T00:49:27;230.50;6502.40
49052;DHT22;34866;48.670;18.260;2024-03-02T00:51:54;230.60;6502.40
49052;DHT22;34866;48.670;18.260;2024-03-02T00:54:21;230.40;6502.40
49052;DHT22;34866;48.670;18.260;2024-03-02T00:56:49;230.70;6502.40
49052;DHT22;34866;48.670;18.260;2024-03-02T00:59:15;230.70;6502.40
49052;DHT22;34866;48.670;18.260;2024-03-02T01:01:41;230.70;6502.40
49052;DHT22;34866;48.670;18.260;2024-03-02T01:04:07;230.60;6502.40
49052;DHT22;34866;48.670;18.260;2024-03-02T01:06:33;230.60;6502.40
49052;DHT22;34866;48.670;18.260;2024-03-02T01:09:01;230.60;6502.40
49052;DHT22;34866;48.670;18.260;2024-03-02T01:11:29;230.50;6502.40
49052;DHT22;34866;48.670;18.260;2024-03-02T01:13:57;230.50;6502.40
49052;DHT22;34866;48.670;18.260;2024-03-02T01:16:22;230.50;6502.40
49052;DHT22;34866;48.670;18.260;2024-03-02T01:18:48;230.50;6502.40
49052;DHT22;34866;48.670;18.260;2024-03-02T01:21:15;230.50;6502.40
49052;DHT22;34866;48.670;18.260;2024-03-02T01:23:40;230.50;6502.40
49052;DHT22;34866;48.670;18.260;2024-03-02T01:26:06;230.40;6502.40
49052;DHT22;34866;48.670;18.260;2024-03-02T01:28:32;230.50;6502.40
49052;DHT22;34866;48.670;18.260;2024-03-02T01:30:58;230.40;6502.40
49052;DHT22;34866;48.670;18.260;2024-03-02T01:33:24;230.40;6502.40
49052;DHT22;34866;48.670;18.260;2024-03-02T01:35:49;230.40;6502.40
49052;DHT22;34866;48.670;18.260;2024-03-02T01:38:15;230.40;6502.40
49052;DHT22;34866;48.670;18.260;2024-03-02T01:40:42;230.40;6502.40
49052;DHT22;34866;48.670;18.260;2024-03-02T01:43:09;230.50;6502.40
49052;DHT22;34866;48.670;18.260;2024-03-02T01:45:35;230.50;6502.40
49052;DHT22;34866;48.670;18.260;2024-03-02T01:48:04;230.40;6502.40
49052;DHT22;34866;48.670;18.260;2024-03-02T01:50:33;230.40;6502.40
49052;DHT22;34866;48.670;18.260;2024-03-02T01:53:00;230.40;6502.40
49052;DHT22;34866;48.670;18.260;2024-03-02T01:55:25;230.40;6502.40
49052;DHT22;34866;48.670;18.260;2024-03-02T01:57:52;230.40;6502.40
49052;DHT22;34866;48.670;18.260;2024-03-02T02:00:19;230.40;6502.40
49052;DHT22;34866;48.670;18.260;2024-03-02T02:02:46;230.40;6502.40
49052;DHT22;34866;48.670;18.260;2024-03-02T02:05:12;230.50;6502.40
49052;DHT22;34866;48.670;18.260;2024-03-02T02:07:38;230.40;6502.40
49052;DHT22;34866;48.670;18.260;2024-03-02T02:10:04;230.40;6502.40
49052;DHT22;34866;48.670;18.260;2024-03-02T02:12:30;230.40;6502.40
49052;DHT22;34866;48.670;18.260;2024-03-02T02:14:56;230.40;6502.40
49052;DHT22;34866;48.670;18.260;2024-03-02T02:17:22;230.40;6502.40
49052;DHT22;34866;48.670;18.260;2024-03-02T02:19:47;230.40;6502.40
49052;DHT22;34866;48.670;18.260;2024-03-02T02:22:13;230.40;6502.40
49052;DHT22;34866;48.670;18.260;2024-03-02T02:24:40;230.40;6502.40
49052;DHT22;34866;48.670;18.260;2024-03-02T02:27:07;205.70;6502.40
49052;DHT22;34866;48.670;18.260;2024-03-02T02:29:33;205.70;6502.40
49052;DHT22;34866;48.670;18.260;2024-03-02T02:31:59;230.40;6502.40
49052;DHT22;34866;48.670;18.260;2024-03-02T02:34:24;205.70;6502.40
49052;DHT22;34866;48.670;18.260;2024-03-02T02:36:50;205.70;6502.40
49052;DHT22;34866;48.670;18.260;2024-03-02T02:39:18;205.60;6502.40
49052;DHT22;34866;48.670;18.260;2024-03-02T02:41:46;205.60;6502.40
49052;DHT22;34866;48.670;18.260;2024-03-02T02:44:11;205.70;6502.40
49052;DHT22;34866;48.670;18.260;2024-03-02T02:46:39;205.60;6502.40
49052;DHT22;34866;48.670;18.260;2024-03-02T02:49:04;205.70;6502.40
49052;DHT22;34866;48.670;18.260;2024-03-02T02:51:30;205.60;6502.40
49052;DHT22;34866;48.670;18.260;2024-03-02T02:53:56;205.50;6502.40
49052;DHT22;34866;48.670;18.260;2024-03-02T02:56:22;205.60;6502.40
49052;DHT22;34866;48.670;18.260;2024-03-02T02:58:47;205.60;6502.40
49052;DHT22;34866;48.670;18.260;2024-03-02T03:01:14;205.60;6502.40
49052;DHT22;34866;48.670;18.260;2024-03-02T03:03:40;205.50;6502.40
49052;DHT22;34866;48.670;18.260;2024-03-02T03:06:06;205.50;6502.40
49052;DHT22;34866;48.670;18.260;2024-03-02T03:08:32;205.50;6502.40
49052;DHT22;34866;48.670;18.260;2024-03-02T03:10:57;205.50;6502.40
49052;DHT22;34866;48.670;18.260;2024-03-02T03:13:23;205.50;6502.40
49052;DHT22;34866;48.670;18.260;2024-03-02T03:15:49;205.40;6502.40
49052;DHT22;34866;48.670;18.260;2024-03-02T03:18:14;205.50;6502.40
49052;DHT22;34866;48.670;18.260;2024-03-02T03:20:40;205.40;6502.40
49052;DHT22;34866;48.670;18.260;2024-03-02T03:23:05;205.40;6502.40
49052;DHT22;34866;48.670;18.260;2024-03-02T03:25:31;205.40;6502.40
49052;DHT22;34866;48.670;18.260;2024-03-02T03:27:57;205.40;6502.40
49052;DHT22;34866;48.670;18.260;2024-03-02T03:30:23;205.40;6502.40
49052;DHT22;34866;48.670;18.260;2024-03-02T03:32:48;205.50;6502.40
49052;DHT22;34866;48.670;18.260;2024-03-02T03:35:14;205.40;6502.40
49052;DHT22;34866;48.670;18.260;2024-03-02T03:37:44;205.50;6502.40
49052;DHT22;34866;48.670;18.260;2024-03-02T03:40:11;205.50;6502.40
49052;DHT22;34866;48.670;18.260;2024-03-02T03:42:37;205.50;6502.40
49052;DHT22;34866;48.670;18.260;2024-03-02T03:45:04;205.50;6502.40
49052;DHT22;34866;48.670;18.260;2024-03-02T03:47:33;205.50;6502.40
49052;DHT22;34866;48.670;18.260;2024-03-02T03:49:59;205.50;6502.40
49052;DHT22;34866;48.670;18.260;2024-03-02T03:52:25;205.50;6502.40
49052;DHT22;34866;48.670;18.260;2024-03-02T03:54:50;205.60;6502.40
49052;DHT22;34866;48.670;18.260;2024-03-02T03:57:17;205.50;6502.40
49052;DHT22;34866;48.670;18.260;2024-03-02T03:59:43;205.50;6502.40
49052;DHT22;34866;48.670;18.260;2024-03-02T04:02:09;205.40;6502.40
49052;DHT22;34866;48.670;18.260;2024-03-02T04:04:37;205.30;6502.40
49052;DHT22;34866;48.670;18.260;2024-03-02T04:07:02;205.30;6502.40
49052;DHT22;34866;48.670;18.260;2024-03-02T04:09:28;205.40;6502.40
49052;DHT22;34866;48.670;18.260;2024-03-02T04:11:54;205.30;6502.40
49052;DHT22;34866;48.670;18.260;2024-03-02T04:14:19;205.20;6502.40
49052;DHT22;34866;48.670;18.260;2024-03-02T04:16:45;205.20;6502.40
49052;DHT22;34866;48.670;18.260;2024-03-02T04:19:11;205.20;6502.40
49052;DHT22;34866;48.670;18.260;2024-03-02T04:21:36;205.20;6502.40
49052;DHT22;34866;48.670;18.260;2024-03-02T04:24:02;205.20;6502.40
49052;DHT22;34866;48.670;18.260;2024-03-02T04:26:28;205.20;6502.40
49052;DHT22;34866;48.670;18.260;2024-03-02T04:28:54;205.20;6502.40
49052;DHT22;34866;48.670;18.260;2024-03-02T04:31:20;205.20;6502.40
49052;DHT22;34866;48.670;18.260;2024-03-02T04:33:46;205.20;6502.40
49052;DHT22;34866;48.670;18.260;2024-03-02T04:36:12;205.20;6502.40
49052;DHT22;34866;48.670;18.260;2024-03-02T04:38:39;205.10;6502.40
49052;DHT22;34866;48.670;18.260;2024-03-02T04:41:05;205.10;6502.40
49052;DHT22;34866;48.670;18.260;2024-03-02T04:43:34;205.20;6502.40
49052;DHT22;34866;48.670;18.260;2024-03-02T04:46:00;205.20;6502.40
49052;DHT22;34866;48.670;18.260;2024-03-02T04:48:26;205.30;6502.40
49052;DHT22;34866;48.670;18.260;2024-03-02T04:50:53;205.30;6502.40
49052;DHT22;34866;48.670;18.260;2024-03-02T04:53:19;205.20;6502.40
49052;DHT22;34866;48.670;18.260;2024-03-02T04:55:44;205.20;6502.40
49052;DHT22;34866;48.670;18.260;2024-03-02T04:58:10;205.20;6502.40
49052;DHT22;34866;48.670;18.260;2024-03-02T05:00:36;205.20;6502.40
49052;DHT22;34866;48.670;18.260;2024-03-02T05:03:02;205.10;6502.40
49052;DHT22;34866;48.670;18.260;2024-03-02T05:05:28;205.20;6502.40
49052;DHT22;34866;48.670;18.260;2024-03-02T05:07:53;205.10;6502.40
49052;DHT22;34866;48.670;18.260;2024-03-02T05:10:20;205.20;6502.40
49052;DHT22;34866;48.670;18.260;2024-03-02T05:12:45;205.20;6502.40
49052;DHT22;34866;48.670;18.260;2024-03-02T05:15:12;205.20;6502.40
49052;DHT22;34866;48.670;18.260;2024-03-02T05:17:39;205.20;6502.40
49052;DHT22;34866;48.670;18.260;2024-03-02T05:20:06;205.10;6502.40
49052;DHT22;34866;48.670;18.260;2024-03-02T05:22:33;205.30;6502.40
49052;DHT22;34866;48.670;18.260;2024-03-02T05:25:00;205.30;6502.40
49052;DHT22;34866;48.670;18.260;2024-03-02T05:27:26;205.20;6502.40
49052;DHT22;34866;48.670;18.260;2024-03-02T05:29:52;205.30;6502.40
49052;DHT22;34866;48.670;18.260;2024-03-02T05:32:19;205.30;6502.40
49052;DHT22;34866;48.670;18.260;2024-03-02T05:34:45;205.30;6502.40
49052;DHT22;34866;48.670;18.260;2024-03-02T05:37:11;205.20;6502.40
49052;DHT22;34866;48.670;18.260;2024-03-02T05:39:37;205.20;6502.40
49052;DHT22;34866;48.670;18.260;2024-03-02T05:42:03;205.30;6502.40
49052;DHT22;34866;48.670;18.260;2024-03-02T05:44:29;205.20;6502.40
49052;DHT22;34866;48.670;18.260;2024-03-02T05:46:55;205.20;6502.40
49052;DHT22;34866;48.670;18.260;2024-03-02T05:49:21;205.20;6502.40
49052;DHT22;34866;48.670;18.260;2024-03-02T05:51:47;205.30;6502.40
49052;DHT22;34866;48.670;18.260;2024-03-02T05:54:13;205.30;6502.40
49052;DHT22;34866;48.670;18.260;2024-03-02T05:56:38;205.30;6502.40
49052;DHT22;34866;48.670;18.260;2024-03-02T05:59:04;205.30;6502.40
49052;DHT22;34866;48.670;18.260;2024-03-02T06:01:42;205.20;6502.40
49052;DHT22;34866;48.670;18.260;2024-03-02T06:04:09;205.30;6502.40
49052;DHT22;34866;48.670;18.260;2024-03-02T06:06:36;205.30;6502.40
49052;DHT22;34866;48.670;18.260;2024-03-02T06:09:03;205.40;6502.40
49052;DHT22;34866;48.670;18.260;2024-03-02T06:11:38;205.40;6502.40
49052;DHT22;34866;48.670;18.260;2024-03-02T06:14:05;205.30;6502.40
49052;DHT22;34866;48.670;18.260;2024-03-02T06:16:31;205.40;6502.40
49052;DHT22;34866;48.670;18.260;2024-03-02T06:18:57;205.40;6502.40
49052;DHT22;34866;48.670;18.260;2024-03-02T06:21:24;205.40;6502.40
49052;DHT22;34866;48.670;18.260;2024-03-02T06:23:50;205.20;6502.40
49052;DHT22;34866;48.670;18.260;2024-03-02T06:26:15;205.30;6502.40
49052;DHT22;34866;48.670;18.260;2024-03-02T06:28:41;205.40;6502.40
49052;DHT22;34866;48.670;18.260;2024-03-02T06:31:07;205.40;6502.40
49052;DHT22;34866;48.670;18.260;2024-03-02T06:33:32;205.30;6502.40
49052;DHT22;34866;48.670;18.260;2024-03-02T06:35:58;205.30;6502.40
49052;DHT22;34866;48.670;18.260;2024-03-02T06:38:24;205.40;6502.40
49052;DHT22;34866;48.670;18.260;2024-03-02T06:40:49;205.40;6502.40
49052;DHT22;34866;48.670;18.260;2024-03-02T06:43:15;205.40;6502.40
49052;DHT22;34866;48.670;18.260;2024-03-02T06:45:41;205.40;6502.40
49052;DHT22;34866;48.670;18.260;2024-03-02T06:48:07;205.40;6502.40
49052;DHT22;34866;48.670;18.260;2024-03-02T06:50:33;205.50;6502.40
49052;DHT22;34866;48.670;18.260;2024-03-02T06:52:58;205.50;6502.40
49052;DHT22;34866;48.670;18.260;2024-03-02T06:55:24;205.40;6502.40
49052;DHT22;34866;48.670;18.260;2024-03-02T06:57:51;205.50;6502.40
49052;DHT22;34866;48.670;18.260;2024-03-02T07:00:17;205.50;6502.40
49052;DHT22;34866;48.670;18.260;2024-03-02T07:02:46;205.50;6502.40
49052;DHT22;34866;48.670;18.260;2024-03-02T07:05:12;205.50;6502.40
49052;DHT22;34866;48.670;18.260;2024-03-02T07:07:38;205.50;6502.40
49052;DHT22;34866;48.670;18.260;2024-03-02T07:10:07;205.50;6502.40
49052;DHT22;34866;48.670;18.260;2024-03-02T07:12:33;205.50;6502.40
49052;DHT22;34866;48.670;18.260;2024-03-02T07:14:58;205.50;6502.40
49052;DHT22;34866;48.670;18.260;2024-03-02T07:17:31;205.50;6502.40
49052;DHT22;34866;48.670;18.260;2024-03-02T07:19:57;205.50;6502.40
49052;DHT22;34866;48.670;18.260;2024-03-02T07:22:23;205.50;6502.40
49052;DHT22;34866;48.670;18.260;2024-03-02T07:24:49;205.50;6502.40
49052;DHT22;34866;48.670;18.260;2024-03-02T07:27:16;205.60;6502.40
49052;DHT22;34866;48.670;18.260;2024-03-02T07:29:42;205.60;6502.40
49052;DHT22;34866;48.670;18.260;2024-03-02T07:32:08;205.60;128.00
49052;DHT22;34866;48.670;18.260;2024-03-02T07:34:35;205.60;6502.40
49052;DHT22;34866;48.670;18.260;2024-03-02T07:37:00;205.60;6502.40
49052;DHT22;34866;48.670;18.260;2024-03-02T07:39:26;205.60;6502.40
49052;DHT22;34866;48.670;18.260;2024-03-02T07:41:52;205.60;128.00
49052;DHT22;34866;48.670;18.260;2024-03-02T07:44:18;205.60;6502.40
49052;DHT22;34866;48.670;18.260;2024-03-02T07:46:46;205.60;6502.40
49052;DHT22;34866;48.670;18.260;2024-03-02T07:49:18;205.60;6502.40
49052;DHT22;34866;48.670;18.260;2024-03-02T07:51:45;205.70;6502.40
49052;DHT22;34866;48.670;18.260;2024-03-02T07:54:10;205.70;128.00
49052;DHT22;34866;48.670;18.260;2024-03-02T07:56:36;205.70;128.00
49052;DHT22;34866;48.670;18.260;2024-03-02T07:59:03;205.70;256.00
49052;DHT22;34866;48.670;18.260;2024-03-02T08:01:29;205.70;128.00
49052;DHT22;34866;48.670;18.260;2024-03-02T08:03:59;205.70;128.00
49052;DHT22;34866;48.670;18.260;2024-03-02T08:06:28;205.70;358.40
49052;DHT22;34866;48.670;18.260;2024-03-02T08:08:55;230.40;332.80
49052;DHT22;34866;48.670;18.260;2024-03-02T08:11:21;230.40;256.00
49052;DHT22;34866;48.670;18.260;2024-03-02T08:13:48;230.40;204.80
49052;DHT22;34866;48.670;18.260;2024-03-02T08:16:17;230.40;128.00
49052;DHT22;34866;48.670;18.260;2024-03-02T08:18:47;230.50;256.00
49052;DHT22;34866;48.670;18.260;2024-03-02T08:21:13;230.50;6502.40
49052;DHT22;34866;48.670;18.260;2024-03-02T08:23:39;230.50;6502.40
49052;DHT22;34866;48.670;18.260;2024-03-02T08:26:06;230.60;409.60
49052;DHT22;34866;48.670;18.260;2024-03-02T08:28:32;230.60;537.60
49052;DHT22;34866;48.670;18.260;2024-03-02T08:30:58;230.60;6502.40
49052;DHT22;34866;48.670;18.260;2024-03-02T08:33:24;230.60;6502.40
49052;DHT22;34866;48.670;18.260;2024-03-02T08:35:50;230.60;6502.40
49052;DHT22;34866;48.670;18.260;2024-03-02T08:38:16;230.70;460.80
49052;DHT22;34866;48.670;18.260;2024-03-02T08:40:42;230.70;230.40
49052;DHT22;34866;48.670;18.260;2024-03-02T08:43:09;230.70;230.40
49052;DHT22;34866;48.670;18.260;2024-03-02T08:45:34;230.80;460.80
49052;DHT22;34866;48.670;18.260;2024-03-02T08:48:01;230.80;358.40
49052;DHT22;34866;48.670;18.260;2024-03-02T08:50:27;230.80;6502.40
49052;DHT22;34866;48.670;18.260;2024-03-02T08:52:53;230.80;563.20
49052;DHT22;34866;48.670;18.260;2024-03-02T08:55:18;230.90;6502.40
49052;DHT22;34866;48.670;18.260;2024-03-02T08:57:44;230.90;6502.40
49052;DHT22;34866;48.670;18.260;2024-03-02T09:00:11;230.90;6502.40
49052;DHT22;34866;48.670;18.260;2024-03-02T09:02:37;231.00;6502.40
49052;DHT22;34866;48.670;18.260;2024-03-02T09:05:04;230.90;6502.40
49052;DHT22;34866;48.670;18.260;2024-03-02T09:07:30;231.00;6502.40
49052;DHT22;34866;48.670;18.260;2024-03-02T09:09:56;231.00;6502.40
49052;DHT22;34866;48.670;18.260;2024-03-02T09:12:22;231.00;6502.40
49052;DHT22;34866;48.670;18.260;2024-03-02T09:14:48;231.00;6502.40
49052;DHT22;34866;48.670;18.260;2024-03-02T09:17:13;231.20;6502.40
49052;DHT22;34866;48.670;18.260;2024-03-02T09:19:39;231.10;6502.40
49052;DHT22;34866;48.670;18.260;2024-03-02T09:22:05;231.10;6502.40
49052;DHT22;34866;48.670;18.260;2024-03-02T09:24:32;231.10;6502.40
49052;DHT22;34866;48.670;18.260;2024-03-02T09:27:00;231.30;6502.40
49052;DHT22;34866;48.670;18.260;2024-03-02T09:29:26;231.20;6502.40
49052;DHT22;34866;48.670;18.260;2024-03-02T09:31:52;231.10;6502.40
49052;DHT22;34866;48.670;18.260;2024-03-02T09:34:18;231.20;6502.40
49052;DHT22;34866;48.670;18.260;2024-03-02T09:36:43;231.20;6502.40
49052;DHT22;34866;48.670;18.260;2024-03-02T09:39:09;231.20;6502.40
49052;DHT22;34866;48.670;18.260;2024-03-02T09:41:36;231.30;6502.40
49052;DHT22;34866;48.670;18.260;2024-03-02T09:44:03;231.30;6502.40
49052;DHT22;34866;48.670;18.260;2024-03-02T09:46:28;231.30;6502.40
49052;DHT22;34866;48.670;18.260;2024-03-02T09:48:54;256.00;6502.40
49052;DHT22;34866;48.670;18.260;2024-03-02T09:51:20;256.00;6502.40
49052;DHT22;34866;48.670;18.260;2024-03-02T09:53:47;256.10;6502.40
49052;DHT22;34866;48.670;18.260;2024-03-02T09:56:13;256.10;6502.40
49052;DHT22;34866;48.670;18.260;2024-03-02T09:58:39;256.10;6502.40
49052;DHT22;34866;48.670;18.260;2024-03-02T10:01:08;256.10;6502.40
49052;DHT22;34866;48.670;18.260;2024-03-02T10:03:36;256.10;6502.40
49052;DHT22;34866;48.670;18.260;2024-03-02T10:06:27;256.10;6502.40
49052;DHT22;34866;48.670;18.260;2024-03-02T10:08:54;256.10;6502.40
49052;DHT22;34866;48.670;18.260;2024-03-02T10:11:30;256.10;6502.40
49052;DHT22;34866;48.670;18.260;2024-03-02T10:14:10;256.10;6502.40
49052;DHT22;34866;48.670;18.260;2024-03-02T10:16:40;256.30;6502.40
49052;DHT22;34866;48.670;18.260;2024-03-02T10:19:23;256.30;6502.40
49052;DHT22;34866;48.670;18.260;2024-03-02T10:21:51;256.30;6502.40
49052;DHT22;34866;48.670;18.260;2024-03-02T10:24:21;256.40;6502.40
49052;DHT22;34866;48.670;18.260;2024-03-02T10:26:47;256.40;6502.40
49052;DHT22;34866;48.670;18.260;2024-03-02T10:29:13;256.50;6502.40
49052;DHT22;34866;48.670;18.260;2024-03-02T10:31:41;256.60;6502.40
49052;DHT22;34866;48.670;18.260;2024-03-02T10:34:07;256.60;6502.40
49052;DHT22;34866;48.670;18.260;2024-03-02T10:36:34;256.70;6502.40
49052;DHT22;34866;48.670;18.260;2024-03-02T10:39:05;256.70;6502.40
49052;DHT22;34866;48.670;18.260;2024-03-02T10:41:33;256.90;6502.40
49052;DHT22;34866;48.670;18.260;2024-03-02T10:44:05;256.80;6502.40
49052;DHT22;34866;48.670;18.260;2024-03-02T10:46:33;256.80;6502.40
49052;DHT22;34866;48.670;18.260;2024-03-02T10:49:00;256.80;6502.40
49052;DHT22;34866;48.670;18.260;2024-03-02T10:51:27;256.80;6502.40
49052;DHT22;34866;48.670;18.260;2024-03-02T10:53:54;256.90;6502.40
49052;DHT22;34866;48.670;18.260;2024-03-02T10:56:29;256.90;6502.40
49052;DHT22;34866;48.670;18.260;2024-03-02T10:59:28;281.60;6528.00
49052;DHT22;34866;48.670;18.260;2024-03-02T11:01:59;281.60;6528.00
49052;DHT22;34866;48.670;18.260;2024-03-02T11:04:26;281.60;6528.00
49052;DHT22;34866;48.670;18.260;2024-03-02T11:06:56;281.70;6528.00
49052;DHT22;34866;48.670;18.260;2024-03-02T11:09:27;281.70;6528.00
49052;DHT22;34866;48.670;18.260;2024-03-02T11:12:09;281.80;6528.00
49052;DHT22;34866;48.670;18.260;2024-03-02T11:14:41;281.80;6528.00
49052;DHT22;34866;48.670;18.260;2024-03-02T11:17:11;281.80;6528.00
49052;DHT22;34866;48.670;18.260;2024-03-02T11:19:40;281.90;6528.00
49052;DHT22;34866;48.670;18.260;2024-03-02T11:22:08;281.90;6528.00
49052;DHT22;34866;48.670;18.260;2024-03-02T11:24:34;282.00;6528.00
49052;DHT22;34866;48.670;18.260;2024-03-02T11:27:04;282.00;6528.00
49052;DHT22;34866;48.670;18.260;2024-03-02T11:32:16;282.10;6528.00
49052;DHT22;34866;48.670;18.260;2024-03-02T11:34:45;282.10;6528.00
49052;DHT22;34866;48.670;18.260;2024-03-02T11:37:13;282.20;6528.00
49052;DHT22;34866;48.670;18.260;2024-03-02T11:39:39;282.10;6528.00
49052;DHT22;34866;48.670;18.260;2024-03-02T11:42:07;282.30;6528.00
49052;DHT22;34866;48.670;18.260;2024-03-02T11:44:35;282.20;563.20
49052;DHT22;34866;48.670;18.260;2024-03-02T11:47:06;282.30;6528.00
49052;DHT22;34866;48.670;18.260;2024-03-02T11:49:44;282.30;588.80
49052;DHT22;34866;48.670;18.260;2024-03-02T11:52:15;282.30;486.40
49052;DHT22;34866;48.670;18.260;2024-03-02T11:54:46;282.30;512.00
49052;DHT22;34866;48.670;18.260;2024-03-02T11:57:20;282.30;230.40
49052;DHT22;34866;48.670;18.260;2024-03-02T11:59:48;282.30;230.40
49052;DHT22;34866;48.670;18.260;2024-03-02T12:02:17;282.30;307.20
49052;DHT22;34866;48.670;18.260;2024-03-02T12:04:44;282.30;460.80
49052;DHT22;34866;48.670;18.260;2024-03-02T12:07:10;282.30;563.20
49052;DHT22;34866;48.670;18.260;2024-03-02T12:09:36;282.30;435.20
49052;DHT22;34866;48.670;18.260;2024-03-02T12:12:06;282.20;128.00
49052;DHT22;34866;48.670;18.260;2024-03-02T12:14:33;282.20;384.00
49052;DHT22;34866;48.670;18.260;2024-03-02T12:16:59;282.30;332.80
49052;DHT22;34866;48.670;18.260;2024-03-02T12:19:26;282.20;384.00
49052;DHT22;34866;48.670;18.260;2024-03-02T12:21:59;282.30;256.00
49052;DHT22;34866;48.670;18.260;2024-03-02T12:24:27;282.20;384.00
49052;DHT22;34866;48.670;18.260;2024-03-02T12:26:53;282.20;409.60
49052;DHT22;34866;48.670;18.260;2024-03-02T12:29:20;281.60;384.00
49052;DHT22;34866;48.670;18.260;2024-03-02T12:31:49;282.20;435.20
49052;DHT22;34866;48.670;18.260;2024-03-02T12:34:17;282.20;512.00
49052;DHT22;34866;48.670;18.260;2024-03-02T12:36:43;282.20;537.60
49052;DHT22;34866;48.670;18.260;2024-03-02T12:39:13;282.20;6528.00
49052;DHT22;34866;48.670;18.260;2024-03-02T12:41:39;282.10;6528.00
49052;DHT22;34866;48.670;18.260;2024-03-02T12:44:05;282.20;486.40
49052;DHT22;34866;48.670;18.260;2024-03-02T12:46:34;282.20;537.60
49052;DHT22;34866;48.670;18.260;2024-03-02T12:49:12;282.30;588.80
49052;DHT22;34866;48.670;18.260;2024-03-02T12:51:39;282.30;588.80
49052;DHT22;34866;48.670;18.260;2024-03-02T12:54:06;282.30;537.60
49052;DHT22;34866;48.670;18.260;2024-03-02T12:56:32;282.30;6528.00
49052;DHT22;34866;48.670;18.260;2024-03-02T12:59:00;282.30;537.60
49052;DHT22;34866;48.670;18.260;2024-03-02T13:01:25;282.30;486.40
49052;DHT22;34866;48.670;18.260;2024-03-02T13:03:52;282.30;204.80
49052;DHT22;34866;48.670;18.260;2024-03-02T13:06:20;282.30;179.20
49052;DHT22;34866;48.670;18.260;2024-03-02T13:08:46;282.30;128.00
49052;DHT22;34866;48.670;18.260;2024-03-02T13:11:16;282.40;204.80
49052;DHT22;34866;48.670;18.260;2024-03-02T13:13:42;282.30;179.20
49052;DHT22;34866;48.670;18.260;2024-03-02T13:16:09;282.40;128.00
49052;DHT22;34866;48.670;18.260;2024-03-02T13:18:35;282.40;6528.00
49052;DHT22;34866;48.670;18.260;2024-03-02T13:21:01;282.50;6528.00
49052;DHT22;34866;48.670;18.260;2024-03-02T13:23:27;282.50;128.00
49052;DHT22;34866;48.670;18.260;2024-03-02T13:25:57;282.50;128.00
49052;DHT22;34866;48.670;18.260;2024-03-02T13:28:24;282.50;179.20
49052;DHT22;34866;48.670;18.260;2024-03-02T13:30:50;282.50;230.40
49052;DHT22;34866;48.670;18.260;2024-03-02T13:33:15;282.50;230.40
49052;DHT22;34866;48.670;18.260;2024-03-02T13:35:41;282.50;179.20
49052;DHT22;34866;48.670;18.260;2024-03-02T13:38:07;282.50;204.80
49052;DHT22;34866;48.670;18.260;2024-03-02T13:40:33;282.20;153.60
49052;DHT22;34866;48.670;18.260;2024-03-02T13:43:02;307.20;384.00
49052;DHT22;34866;48.670;18.260;2024-03-02T13:45:30;307.20;307.20
49052;DHT22;34866;48.670;18.260;2024-03-02T13:47:55;307.30;128.00
49052;DHT22;34866;48.670;18.260;2024-03-02T13:50:21;307.30;128.00
49052;DHT22;34866;48.670;18.260;2024-03-02T13:52:47;307.30;256.00
49052;DHT22;34866;48.670;18.260;2024-03-02T13:55:12;307.40;128.00
49052;DHT22;34866;48.670;18.260;2024-03-02T13:57:39;307.40;128.00
49052;DHT22;34866;48.670;18.260;2024-03-02T14:00:05;307.40;204.80
49052;DHT22;34866;48.670;18.260;2024-03-02T14:02:36;307.40;128.00
49052;DHT22;34866;48.670;18.260;2024-03-02T14:05:03;307.40;128.00
49052;DHT22;34866;48.670;18.260;2024-03-02T14:07:28;307.40;204.80
49052;DHT22;34866;48.670;18.260;2024-03-02T14:09:54;307.40;409.60
49052;DHT22;34866;48.670;18.260;2024-03-02T14:12:20;307.40;281.60
49052;DHT22;34866;48.670;18.260;2024-03-02T14:14:47;307.40;358.40
49052;DHT22;34866;48.670;18.260;2024-03-02T14:17:13;307.40;435.20
49052;DHT22;34866;48.670;18.260;2024-03-02T14:19:41;307.40;204.80
49052;DHT22;34866;48.670;18.260;2024-03-02T14:22:06;307.30;358.40
49052;DHT22;34866;48.670;18.260;2024-03-02T14:24:32;307.30;230.40
49052;DHT22;34866;48.670;18.260;2024-03-02T14:26:59;307.40;128.00
49052;DHT22;34866;48.670;18.260;2024-03-02T14:29:27;307.30;128.00
49052;DHT22;34866;48.670;18.260;2024-03-02T14:31:53;307.30;128.00
49052;DHT22;34866;48.670;18.260;2024-03-02T14:34:18;307.30;128.00
49052;DHT22;34866;48.670;18.260;2024-03-02T14:36:45;307.30;128.00
49052;DHT22;34866;48.670;18.260;2024-03-02T14:39:11;307.30;128.00
49052;DHT22;34866;48.670;18.260;2024-03-02T14:41:38;307.30;128.00